Time;durP1;ratioP1;P1;durP2;ratioP2;P2;SDS_P1;SDS_P2;PMS_P1;PMS_P2;Temp;Humidity;BMP_temperature;BMP_pressure;BME280_temperature;BME280_humidity;BME280_pressure;Samples;Min_cycle;Max_cycle;Signal;HPM_P1;HPM_P2
2021/06/22 00:00:26;;;;;;;12.02;9.25;;;16.20;99.90;;;15.33;94.92;97061.13;5034962;28;20068;-64
2021/06/22 00:03:13;;;;;;;11.02;9.25;;;16.20;99.90;;;15.31;94.62;97065.63;5044826;28;20405;-64
2021/06/22 00:06:01;;;;;;;11.88;8.57;;;16.10;99.90;;;15.41;94.13;97071.88;5044575;28;20411;-64
2021/06/22 00:08:48;;;;;;;12.27;9.35;;;16.20;99.90;;;15.42;94.71;97070.13;5040362;28;20045;-64
2021/06/22 00:11:36;;;;;;;11.27;9.77;;;16.20;99.90;;;15.32;94.65;97074.31;5031486;28;20045;-64
2021/06/22 00:14:23;;;;;;;12.63;10.50;;;16.20;99.90;;;15.29;94.80;97066.69;5035976;28;20034;-64
2021/06/22 00:17:10;;;;;;;11.50;10.25;;;16.20;99.90;;;15.28;94.88;97063.25;5047657;28;20123;-64
2021/06/22 00:19:58;;;;;;;12.30;11.00;;;16.20;99.90;;;15.26;94.15;97050.25;5041751;28;20044;-64
2021/06/22 00:22:46;;;;;;;13.55;10.38;;;16.10;99.90;;;15.32;94.13;97048.97;5040429;28;20108;-64
2021/06/22 00:25:34;;;;;;;15.02;10.80;;;16.10;99.90;;;15.41;93.83;97053.56;5030841;28;20040;-64
2021/06/22 00:28:21;;;;;;;15.20;9.90;;;16.10;99.90;;;15.47;92.99;97061.00;5049696;28;20041;-64
2021/06/22 00:31:08;;;;;;;13.52;10.18;;;16.30;99.90;;;15.56;92.26;97053.44;5043857;28;20087;-64
2021/06/22 00:33:56;;;;;;;12.80;11.02;;;16.30;99.90;;;15.39;91.92;97039.75;5046601;28;20049;-64
2021/06/22 00:36:43;;;;;;;12.15;10.57;;;16.20;99.90;;;15.29;91.84;97038.75;5041499;28;20083;-64
2021/06/22 00:39:30;;;;;;;14.75;11.05;;;16.20;99.90;;;15.20;92.77;97037.63;5040545;28;20076;-64
2021/06/22 00:42:18;;;;;;;14.13;11.95;;;16.10;99.90;;;15.10;91.85;97038.34;5049023;28;20043;-64
2021/06/22 00:45:06;;;;;;;14.68;12.40;;;15.90;99.90;;;14.97;91.52;97036.59;5046170;28;20518;-63
2021/06/22 00:47:54;;;;;;;18.20;12.73;;;15.80;99.90;;;14.87;91.27;97040.81;5040393;28;20064;-64
2021/06/22 00:50:41;;;;;;;15.35;11.55;;;15.60;99.90;;;14.90;91.57;97039.75;5048454;28;20144;-64
2021/06/22 00:53:29;;;;;;;16.38;12.40;;;15.70;99.90;;;14.95;91.55;97030.63;5048431;28;20087;-64
2021/06/22 00:56:16;;;;;;;14.25;12.57;;;15.70;99.90;;;15.01;91.64;97034.63;5022593;28;20103;-64
2021/06/22 00:59:03;;;;;;;11.45;10.00;;;15.70;99.90;;;15.14;90.38;97038.03;5034890;28;20044;-64
2021/06/22 01:01:51;;;;;;;12.93;11.48;;;15.80;99.90;;;15.18;89.88;97036.06;5042132;28;20539;-64
2021/06/22 01:04:39;;;;;;;13.98;10.95;;;15.90;99.90;;;15.33;89.95;97027.13;5043395;28;20038;-65
2021/06/22 01:07:26;;;;;;;14.18;11.35;;;16.00;99.90;;;14.68;91.42;97025.53;5039061;28;20594;-64
2021/06/22 01:10:14;;;;;;;14.85;12.63;;;16.00;99.90;;;14.77;91.55;97022.28;5030976;28;20060;-64
2021/06/22 01:13:01;;;;;;;14.52;11.73;;;15.90;99.90;;;15.00;90.44;97019.88;5047053;28;20052;-65
2021/06/22 01:15:48;;;;;;;15.27;13.07;;;15.80;99.90;;;14.99;90.73;97026.88;5041965;28;20052;-64
2021/06/22 01:18:35;;;;;;;18.52;13.85;;;15.90;99.90;;;14.84;89.61;97020.91;5046002;28;20052;-64
2021/06/22 01:21:23;;;;;;;14.30;12.00;;;15.70;99.90;;;15.00;90.19;97023.31;5034241;28;20049;-64
2021/06/22 01:24:15;;;;;;;15.73;13.95;;;15.80;99.90;;;14.95;89.70;97040.25;5043398;28;20060;-64
2021/06/22 01:27:03;;;;;;;14.15;12.38;;;15.80;99.90;;;15.01;89.55;97030.22;5049670;28;20037;-64
2021/06/22 01:29:52;;;;;;;13.48;11.60;;;15.80;99.90;;;15.13;89.68;97035.53;5045087;28;20041;-65
2021/06/22 01:32:40;;;;;;;15.35;11.95;;;15.90;99.90;;;15.10;89.52;97041.81;5042937;28;20045;-64
2021/06/22 01:35:28;;;;;;;15.52;13.85;;;16.00;99.90;;;15.03;89.89;97036.19;5046972;28;20048;-64
2021/06/22 01:38:16;;;;;;;14.68;11.50;;;16.00;99.90;;;15.11;88.69;97040.88;5046597;28;20041;-64
2021/06/22 01:41:03;;;;;;;15.55;10.32;;;16.00;99.90;;;15.32;89.33;97041.13;5031717;28;20042;-64
2021/06/22 01:43:51;;;;;;;16.02;12.18;;;16.10;99.90;;;15.33;88.72;97042.00;5045732;28;20091;-64
2021/06/22 01:46:39;;;;;;;14.77;12.65;;;16.10;99.90;;;15.19;89.40;97041.19;5041117;28;20061;-64
2021/06/22 01:49:26;;;;;;;13.75;11.90;;;16.20;99.90;;;15.17;89.57;97050.09;5042482;28;20040;-64
2021/06/22 01:52:16;;;;;;;13.90;11.70;;;16.20;99.90;;;15.18;89.37;97051.75;5048662;28;20072;-64
2021/06/22 01:58:15;;;;;;;17.73;13.52;;;16.10;99.90;;;14.94;90.56;97043.81;5040535;28;20175;-64
2021/06/22 02:01:03;;;;;;;13.20;11.82;;;16.10;99.90;;;15.12;89.61;97044.31;5041731;28;20068;-64
2021/06/22 02:03:50;;;;;;;15.18;12.15;;;16.10;99.90;;;15.12;89.64;97042.56;5038768;28;20112;-64
2021/06/22 02:06:39;;;;;;;16.65;14.13;;;16.10;99.90;;;15.16;89.15;97043.16;5048307;28;20052;-64
2021/06/22 02:09:26;;;;;;;15.82;12.85;;;16.10;99.90;;;15.10;89.90;97046.19;5047026;28;20092;-64
2021/06/22 02:12:13;;;;;;;12.32;10.05;;;16.00;99.90;;;15.37;88.56;97044.28;5033388;28;20093;-64
2021/06/22 02:15:03;;;;;;;14.45;12.02;;;16.10;99.90;;;15.12;89.71;97028.63;5048386;28;20053;-64
2021/06/22 02:17:50;;;;;;;15.73;12.60;;;16.20;99.90;;;15.17;89.54;97027.38;5051191;28;20576;-64
2021/06/22 02:20:40;;;;;;;15.32;12.75;;;16.20;99.90;;;15.24;89.24;97023.38;5049805;28;20446;-64
2021/06/22 02:23:27;;;;;;;18.35;14.88;;;16.20;99.90;;;15.00;89.88;97012.84;5046139;28;20040;-64
2021/06/22 02:26:14;;;;;;;19.45;15.65;;;16.10;99.90;;;15.01;90.00;97019.78;5049183;28;20118;-64
2021/06/22 02:29:03;;;;;;;23.70;18.38;;;16.00;99.90;;;15.04;89.65;97021.34;5034781;28;20040;-64
2021/06/22 02:31:50;;;;;;;20.13;16.55;;;15.90;99.90;;;14.89;90.13;97017.16;5050926;28;20541;-64
2021/06/22 02:34:38;;;;;;;23.70;19.70;;;15.70;99.90;;;14.72;90.96;97008.69;5050755;28;20047;-64
2021/06/22 02:37:25;;;;;;;25.77;20.30;;;15.70;99.90;;;14.70;91.86;97005.34;5034327;28;20045;-64
2021/06/22 02:40:13;;;;;;;24.45;18.45;;;15.60;99.90;;;14.82;91.66;97011.50;5047891;28;20045;-64
2021/06/22 02:43:01;;;;;;;24.80;19.67;;;15.70;99.90;;;14.73;91.36;97018.19;5033297;28;20391;-64
2021/06/22 02:45:48;;;;;;;22.25;17.83;;;15.70;99.90;;;14.59;91.54;97021.75;5039855;28;20057;-65
2021/06/22 02:48:35;;;;;;;26.75;19.27;;;15.50;99.90;;;14.56;91.33;97023.75;5045357;28;20076;-64
2021/06/22 02:51:23;;;;;;;26.25;18.90;;;15.30;99.90;;;14.52;91.91;97017.03;5038291;28;20123;-64
2021/06/22 02:54:10;;;;;;;25.25;18.65;;;15.30;99.90;;;14.48;92.29;97007.72;5041770;28;20037;-64
2021/06/22 02:56:57;;;;;;;21.65;17.10;;;15.30;99.90;;;14.52;91.95;97002.19;5039760;28;20537;-64
2021/06/22 02:59:45;;;;;;;24.63;18.63;;;15.30;99.90;;;14.56;91.81;97008.91;5043429;28;20505;-64
2021/06/22 03:02:32;;;;;;;23.75;17.88;;;15.30;99.90;;;14.41;91.97;97005.53;5050048;28;20106;-64
2021/06/22 03:05:20;;;;;;;22.30;17.73;;;15.20;99.90;;;14.55;91.95;97001.16;5047090;28;20053;-65
2021/06/22 03:08:08;;;;;;;25.10;17.73;;;15.30;99.90;;;14.31;91.47;97003.66;5037428;28;20044;-64
2021/06/22 03:10:55;;;;;;;24.92;18.55;;;15.20;99.90;;;14.34;92.29;97001.66;5050354;28;20052;-64
2021/06/22 03:13:43;;;;;;;23.45;17.08;;;15.20;99.90;;;14.42;92.51;97001.16;5050977;28;20285;-63
2021/06/22 03:16:31;;;;;;;22.60;17.80;;;15.20;99.90;;;14.45;91.36;97000.94;5050565;28;20049;-64
2021/06/22 03:19:19;;;;;;;22.63;17.35;;;15.20;99.90;;;14.58;91.42;97004.41;5039380;28;20053;-63
2021/06/22 03:22:08;;;;;;;23.63;17.80;;;15.30;99.90;;;14.47;90.90;97014.72;5036082;28;20044;-64
2021/06/22 03:24:55;;;;;;;20.00;17.15;;;15.20;99.90;;;14.51;91.01;97017.97;5048973;28;20056;-64
2021/06/22 03:27:44;;;;;;;23.23;17.05;;;15.20;99.90;;;14.43;90.64;97023.69;5049286;28;20173;-64
2021/06/22 03:30:31;;;;;;;29.63;18.58;;;15.20;99.90;;;14.26;91.36;97030.06;5050637;28;20048;-64
2021/06/22 03:33:19;;;;;;;23.55;17.67;;;15.10;99.90;;;14.19;91.14;97031.41;5050532;28;20045;-64
2021/06/22 03:36:07;;;;;;;22.17;17.15;;;15.10;99.90;;;14.22;91.25;97028.56;5049762;28;20517;-64
2021/06/22 03:38:54;;;;;;;23.45;17.98;;;15.10;99.90;;;14.38;90.71;97039.66;5051140;28;20095;-64
2021/06/22 03:41:45;;;;;;;20.23;16.20;;;15.20;99.90;;;14.46;90.07;97041.78;5041396;28;20518;-64
2021/06/22 03:44:33;;;;;;;19.73;15.82;;;15.30;99.90;;;14.48;90.25;97039.06;5037843;28;20118;-64
2021/06/22 03:47:21;;;;;;;19.60;14.90;;;15.30;99.90;;;14.49;90.06;97040.75;5032669;28;20033;-64
2021/06/22 03:50:09;;;;;;;20.33;16.70;;;15.20;99.90;;;14.43;90.13;97042.81;5022787;28;20069;-64
2021/06/22 03:52:57;;;;;;;21.55;16.55;;;15.30;99.90;;;14.36;90.26;97046.78;5050493;28;20507;-64
2021/06/22 03:55:44;;;;;;;20.52;15.30;;;15.30;99.90;;;14.41;90.36;97052.53;5048375;28;20063;-64
2021/06/22 03:58:31;;;;;;;20.35;16.13;;;15.20;99.90;;;14.33;90.65;97051.38;5048895;28;20056;-64
2021/06/22 04:01:18;;;;;;;19.02;14.30;;;15.10;99.90;;;14.35;90.14;97065.16;5032249;28;20155;-64
2021/06/22 04:04:06;;;;;;;17.92;13.30;;;15.10;99.90;;;14.37;90.06;97063.28;5035555;28;20040;-64
2021/06/22 04:06:54;;;;;;;17.30;13.90;;;15.20;99.90;;;14.25;90.11;97075.34;5048665;28;20057;-64
2021/06/22 04:09:41;;;;;;;15.60;13.07;;;15.20;99.90;;;14.29;90.68;97079.44;5048188;28;20049;-65
2021/06/22 04:12:28;;;;;;;15.75;12.90;;;15.10;99.90;;;14.44;90.47;97075.00;5050020;28;20079;-64
2021/06/22 04:15:16;;;;;;;17.10;14.77;;;15.30;99.90;;;14.49;89.82;97088.56;5049016;28;20063;-65
2021/06/22 04:18:07;;;;;;;14.38;11.73;;;15.40;99.90;;;14.65;89.58;97093.66;5050211;28;20056;-64
2021/06/22 04:20:54;;;;;;;16.13;12.88;;;15.50;99.90;;;14.64;89.27;97087.59;5048279;28;20095;-64
2021/06/22 04:23:42;;;;;;;18.25;13.10;;;15.60;99.90;;;14.55;89.22;97085.59;5048399;28;20165;-64
2021/06/22 04:26:29;;;;;;;15.52;12.60;;;15.60;99.90;;;14.47;89.99;97084.41;5049474;28;20509;-64
2021/06/22 04:29:16;;;;;;;17.90;13.48;;;15.50;99.90;;;14.37;90.29;97079.78;5048791;28;20065;-64
2021/06/22 04:32:04;;;;;;;20.00;14.82;;;15.40;99.90;;;14.27;91.11;97083.09;5033198;28;20033;-64
2021/06/22 04:34:52;;;;;;;17.30;14.52;;;15.30;99.90;;;14.32;90.88;97083.63;5048722;28;20132;-64
2021/06/22 04:37:41;;;;;;;18.30;14.18;;;15.30;99.90;;;14.38;90.46;97089.28;5048670;28;20049;-64
2021/06/22 04:40:29;;;;;;;17.50;14.90;;;15.40;99.90;;;14.20;90.67;97091.31;5049020;28;20076;-64
2021/06/22 04:43:16;;;;;;;17.85;13.57;;;15.20;99.90;;;14.40;90.04;97099.63;5048627;28;20073;-64
2021/06/22 04:46:03;;;;;;;17.90;14.30;;;15.30;99.90;;;14.38;89.65;97114.56;5045586;28;20045;-65
2021/06/22 04:48:51;;;;;;;14.27;12.65;;;15.20;99.90;;;14.51;89.69;97118.03;5049551;28;20033;-65
2021/06/22 04:51:39;;;;;;;16.50;13.27;;;15.40;99.90;;;14.56;88.95;97113.38;5048995;28;20041;-64
2021/06/22 04:54:26;;;;;;;16.05;12.90;;;15.40;99.90;;;14.53;88.38;97120.53;5044972;28;20564;-65
2021/06/22 04:57:18;;;;;;;17.13;13.18;;;15.40;99.90;;;14.57;89.03;97109.84;5048729;28;20045;-64
2021/06/22 05:00:06;;;;;;;17.63;14.18;;;15.40;99.90;;;14.54;88.62;97101.34;5047877;28;20052;-64
2021/06/22 05:02:54;;;;;;;18.38;13.02;;;15.50;99.90;;;14.46;89.83;97093.16;5035566;28;20033;-65
2021/06/22 05:05:41;;;;;;;16.30;13.18;;;15.60;99.90;;;14.68;88.13;97085.59;5047805;28;20045;-65
2021/06/22 05:08:28;;;;;;;18.75;13.20;;;15.70;99.90;;;14.69;89.09;97079.47;5048185;28;20045;-65
2021/06/22 05:11:17;;;;;;;13.82;11.48;;;15.90;99.90;;;14.87;87.49;97077.38;5049925;28;20080;-65
2021/06/22 05:14:04;;;;;;;18.67;13.73;;;15.80;99.90;;;14.60;88.63;97074.84;5044225;28;20140;-65
2021/06/22 05:16:51;;;;;;;16.10;12.88;;;15.70;99.90;;;14.91;87.69;97091.06;5035541;28;20045;-64
2021/06/22 05:19:39;;;;;;;15.25;11.68;;;15.80;99.90;;;15.13;86.49;97093.06;5034237;28;20068;-65
2021/06/22 05:22:26;;;;;;;13.65;11.60;;;16.00;99.90;;;15.05;86.71;97088.31;5048537;28;20036;-65
2021/06/22 05:25:14;;;;;;;18.25;11.00;;;16.00;99.90;;;15.13;85.96;97093.06;5044754;28;20521;-65
2021/06/22 05:28:01;;;;;;;14.15;11.52;;;16.00;99.90;;;15.07;85.51;97089.06;5046618;28;20175;-65
2021/06/22 05:30:49;;;;;;;12.35;10.25;;;16.00;99.90;;;15.36;86.63;97087.06;5043947;28;20087;-65
2021/06/22 05:33:37;;;;;;;14.30;10.75;;;16.20;99.90;;;15.37;86.06;97096.59;5025495;28;20769;-64
2021/06/22 05:36:24;;;;;;;13.07;11.15;;;16.60;99.90;;;15.64;83.88;97101.63;5031494;28;20137;-64
2021/06/22 05:39:11;;;;;;;13.20;10.55;;;16.70;99.90;;;15.75;83.35;97092.25;5049593;28;20090;-65
2021/06/22 05:41:59;;;;;;;13.93;10.18;;;16.70;99.90;;;15.70;83.63;97097.78;5048008;28;20041;-65
2021/06/22 05:44:46;;;;;;;11.40;7.60;;;16.60;99.90;;;15.50;84.67;97099.16;5045007;28;20060;-64
2021/06/22 05:47:34;;;;;;;10.32;7.63;;;16.70;99.90;;;15.70;82.65;97097.78;5042045;28;20038;-64
2021/06/22 05:50:21;;;;;;;9.18;7.68;;;16.70;99.90;;;15.48;81.72;97093.19;5048877;28;20123;-64
2021/06/22 05:53:08;;;;;;;9.23;6.72;;;16.70;99.90;;;15.48;83.30;97108.91;5045053;28;20124;-64
2021/06/22 05:55:56;;;;;;;11.30;7.30;;;16.60;99.90;;;15.21;82.92;97104.66;5047911;28;20583;-64
2021/06/22 05:58:43;;;;;;;9.70;7.05;;;16.40;99.90;;;15.25;83.53;97108.72;5046020;28;20053;-64
2021/06/22 06:01:31;;;;;;;8.90;7.13;;;16.50;99.90;;;15.13;83.96;97106.13;5048742;28;20053;-65
2021/06/22 06:04:19;;;;;;;11.48;7.78;;;16.20;99.90;;;15.16;83.76;97122.41;5052625;28;20051;-65
2021/06/22 06:07:06;;;;;;;10.32;7.53;;;16.10;99.90;;;15.15;83.83;97107.69;5054270;28;20041;-65
2021/06/22 06:09:54;;;;;;;7.85;6.43;;;16.00;99.90;;;15.33;83.41;97115.22;5054511;28;20037;-65
2021/06/22 06:12:42;;;;;;;11.18;7.18;;;16.20;99.90;;;15.53;83.49;97122.50;5053702;28;20033;-65
2021/06/22 06:15:30;;;;;;;10.23;6.78;;;16.40;99.90;;;15.67;82.76;97124.16;5053887;28;20052;-65
2021/06/22 06:18:17;;;;;;;8.52;7.10;;;16.70;99.90;;;15.58;82.73;97128.25;5055518;28;20049;-65
2021/06/22 06:21:05;;;;;;;9.02;6.60;;;16.50;99.90;;;15.82;82.46;97127.50;5055877;28;20049;-65
2021/06/22 06:23:56;;;;;;;9.38;6.57;;;16.70;99.90;;;15.64;82.64;97124.34;5039247;28;20124;-65
2021/06/22 06:27:01;;;;;;;8.85;6.65;;;16.60;99.90;;;15.71;83.61;97124.78;5050502;28;20053;-64
2021/06/22 06:32:38;;;;;;;11.63;6.18;;;16.70;99.90;;;15.29;84.27;97132.88;5051676;28;20049;-63
2021/06/22 06:35:26;;;;;;;8.75;5.40;;;16.60;99.90;;;15.42;83.65;97138.94;5049411;28;20118;-64
2021/06/22 06:38:14;;;;;;;7.05;5.07;;;16.50;99.90;;;15.42;83.54;97145.97;5052760;28;20045;-64
2021/06/22 06:41:02;;;;;;;7.55;4.47;;;16.50;99.90;;;15.64;82.54;97145.28;5054637;28;20413;-65
2021/06/22 06:43:50;;;;;;;6.70;4.30;;;16.60;99.90;;;15.83;81.40;97152.72;5056078;28;20040;-65
2021/06/22 06:46:37;;;;;;;4.30;3.72;;;16.70;99.90;;;16.14;80.94;97159.22;5051547;28;20045;-65
2021/06/22 06:49:25;;;;;;;5.18;3.30;;;17.00;99.90;;;16.35;80.65;97162.06;5050303;28;20087;-66
2021/06/22 06:52:12;;;;;;;7.78;3.55;;;17.30;99.90;;;16.40;79.96;97174.81;5050493;28;20037;-65
2021/06/22 06:55:00;;;;;;;5.18;3.78;;;17.50;99.90;;;16.19;78.65;97164.94;5046908;28;20103;-65
2021/06/22 06:57:47;;;;;;;6.07;3.97;;;17.20;99.90;;;16.00;79.16;97177.69;5050015;28;20590;-65
2021/06/22 07:00:37;;;;;;;7.30;3.55;;;17.00;99.90;;;15.83;80.80;97173.66;5046074;28;20049;-66
2021/06/22 07:03:24;;;;;;;7.32;3.60;;;16.90;99.90;;;15.65;81.53;97173.13;5031353;28;20072;-65
2021/06/22 07:06:12;;;;;;;9.10;3.83;;;16.90;99.90;;;15.50;81.62;97179.44;5049805;28;20041;-65
2021/06/22 07:09:00;;;;;;;6.20;3.15;;;16.70;99.90;;;16.03;80.96;97164.38;5043360;28;20052;-66
2021/06/22 07:11:47;;;;;;;5.45;3.55;;;17.00;99.90;;;15.85;81.60;97164.75;5053776;28;20199;-65
2021/06/22 07:14:35;;;;;;;4.65;3.97;;;17.10;99.90;;;15.44;81.60;97160.59;5052974;28;20119;-65
2021/06/22 07:17:22;;;;;;;5.82;3.28;;;16.70;99.90;;;15.83;81.32;97157.97;5052589;28;20130;-65
2021/06/22 07:20:11;;;;;;;3.70;3.00;;;16.80;99.90;;;15.97;81.55;97159.59;5038530;28;20072;-65
2021/06/22 07:22:58;;;;;;;5.28;2.70;;;16.90;99.90;;;15.92;81.08;97167.78;5038609;28;20053;-65
2021/06/22 07:25:45;;;;;;;4.32;2.85;;;17.00;99.90;;;16.15;80.28;97179.22;5054551;28;20127;-66
2021/06/22 07:28:33;;;;;;;3.50;2.10;;;17.20;99.90;;;16.45;78.88;97191.91;5055404;28;20036;-66
2021/06/22 07:31:21;;;;;;;4.85;2.60;;;17.20;99.90;;;16.29;79.21;97184.31;5055643;28;20059;-65
2021/06/22 07:34:08;;;;;;;4.00;2.55;;;17.10;99.90;;;15.83;81.37;97186.75;5054371;28;20072;-66
2021/06/22 07:36:56;;;;;;;5.28;3.45;;;17.20;99.90;;;15.89;80.38;97188.91;5048916;28;20501;-65
2021/06/22 07:39:43;;;;;;;4.80;3.10;;;16.90;99.90;;;15.85;80.55;97192.69;5050397;28;20439;-66
2021/06/22 07:42:30;;;;;;;5.70;2.60;;;16.90;99.90;;;15.89;81.02;97199.38;5054487;28;20505;-65
2021/06/22 07:45:18;;;;;;;4.22;2.33;;;17.10;99.90;;;16.14;80.29;97197.66;5052874;28;20044;-65
2021/06/22 07:48:07;;;;;;;2.95;1.73;;;17.20;99.90;;;16.21;80.30;97199.72;5053419;28;20088;-65
2021/06/22 07:50:55;;;;;;;2.92;1.98;;;17.40;99.90;;;16.16;79.92;97198.41;5045988;28;20103;-65
2021/06/22 07:53:42;;;;;;;6.97;2.67;;;17.40;99.90;;;15.85;81.09;97198.78;5048703;28;20069;-66
2021/06/22 07:56:30;;;;;;;4.82;2.33;;;17.20;99.90;;;15.96;81.20;97205.84;5044304;28;20044;-65
2021/06/22 07:59:17;;;;;;;4.40;2.38;;;17.10;99.90;;;16.08;81.01;97212.03;5042918;28;20118;-65
2021/06/22 08:02:05;;;;;;;4.28;2.00;;;17.30;99.90;;;16.30;79.66;97206.09;5039588;28;20050;-65
2021/06/22 08:04:54;;;;;;;3.10;1.98;;;17.20;99.90;;;16.20;80.43;97210.31;5042370;28;20045;-65
2021/06/22 08:07:41;;;;;;;3.15;2.17;;;17.20;99.90;;;16.37;79.50;97219.59;5039841;28;20052;-65
2021/06/22 08:10:30;;;;;;;6.88;2.13;;;17.20;99.90;;;16.18;79.50;97222.69;5038278;28;20401;-66
2021/06/22 08:13:19;;;;;;;3.53;2.30;;;17.10;99.90;;;16.04;80.70;97210.56;5042966;28;20037;-66
2021/06/22 08:16:07;;;;;;;7.68;1.90;;;17.30;99.90;;;16.35;80.19;97214.44;5044890;28;20505;-65
2021/06/22 08:18:54;;;;;;;3.95;2.10;;;17.30;99.90;;;16.37;80.08;97215.19;5050377;28;20045;-65
2021/06/22 08:21:41;;;;;;;4.72;2.60;;;17.40;99.90;;;15.98;81.14;97213.63;5049570;28;20052;-65
2021/06/22 08:24:29;;;;;;;4.40;2.40;;;17.30;99.90;;;15.87;80.93;97212.59;5042520;28;20041;-65
2021/06/22 08:27:18;;;;;;;4.90;1.85;;;17.20;99.90;;;15.94;81.50;97212.16;5039548;28;20053;-66
2021/06/22 08:30:06;;;;;;;3.63;2.05;;;17.20;99.90;;;15.98;81.01;97216.22;5048673;28;20029;-66
2021/06/22 08:32:54;;;;;;;3.47;1.90;;;17.40;99.90;;;16.45;79.84;97217.25;5045812;28;20112;-66
2021/06/22 08:35:41;;;;;;;3.53;2.75;;;17.50;99.90;;;15.99;81.40;97218.75;5049163;28;20046;-65
2021/06/22 08:38:28;;;;;;;3.22;1.60;;;17.70;99.90;;;16.34;79.59;97222.44;5035513;28;20551;-65
2021/06/22 08:41:17;;;;;;;3.30;2.10;;;17.70;99.90;;;16.39;79.50;97225.56;5039280;28;20042;-65
2021/06/22 08:44:09;;;;;;;3.80;2.17;;;17.60;99.90;;;16.27;80.22;97238.56;5027246;28;20032;-65
2021/06/22 08:47:01;;;;;;;5.22;2.13;;;17.60;99.90;;;16.37;79.50;97237.91;5019500;28;20068;-65
2021/06/22 08:49:51;;;;;;;3.60;1.20;;;17.40;99.90;;;16.82;78.42;97238.19;5039698;28;20087;-65
2021/06/22 08:52:39;;;;;;;3.33;1.75;;;17.60;99.90;;;16.83;78.12;97234.63;5047332;28;20040;-65
2021/06/22 08:55:29;;;;;;;4.18;1.85;;;17.70;99.90;;;16.78;78.00;97244.56;5032369;28;20448;-66
2021/06/22 08:58:18;;;;;;;4.65;2.83;;;17.70;99.90;;;16.41;79.30;97239.38;5040348;28;20114;-65
2021/06/22 09:01:05;;;;;;;3.17;1.60;;;17.40;99.90;;;16.26;80.38;97236.91;5046916;28;20056;-66
2021/06/22 09:03:53;;;;;;;3.90;2.30;;;17.50;99.90;;;16.22;80.43;97232.00;5048619;28;20136;-66
2021/06/22 09:06:42;;;;;;;5.60;2.08;;;17.30;99.90;;;16.15;80.86;97238.59;5042229;28;20530;-66
2021/06/22 09:09:40;;;;;;;2.80;1.35;;;17.30;99.90;;;16.24;81.42;97232.75;5043846;28;21129;-66
2021/06/22 09:12:27;;;;;;;6.38;2.15;;;17.40;99.90;;;16.28;81.01;97231.56;5041892;28;20096;-65
2021/06/22 09:15:23;;;;;;;9.38;1.90;;;17.40;99.90;;;16.20;81.17;97231.28;5037169;28;20167;-65
2021/06/22 09:18:24;;;;;;;3.75;1.80;;;17.40;99.90;;;16.02;82.47;97228.16;5046288;28;20120;-65
2021/06/22 09:21:15;;;;;;;5.55;2.22;;;17.40;99.90;;;15.70;83.34;97225.97;5055076;28;20157;-65
2021/06/22 09:24:03;;;;;;;5.70;2.25;;;17.30;99.90;;;15.74;83.54;97237.94;5061691;28;20044;-65
2021/06/22 09:26:52;;;;;;;3.88;2.45;;;17.20;99.90;;;15.94;82.20;97236.53;5052305;28;20037;-65
2021/06/22 09:29:44;;;;;;;6.13;4.63;;;17.10;99.90;;;15.59;83.79;97246.81;5052221;28;20443;-65
2021/06/22 09:32:32;;;;;;;4.40;3.17;;;16.70;99.90;;;15.77;84.06;97240.34;5035501;28;20049;-65
2021/06/22 09:35:21;;;;;;;4.43;3.65;;;16.80;99.90;;;15.86;83.18;97244.09;5052510;28;20064;-65
2021/06/22 09:38:11;;;;;;;5.07;3.03;;;16.80;99.90;;;15.98;82.78;97247.66;5048424;28;20048;-65
2021/06/22 09:41:28;;;;;;;3.90;2.45;;;16.90;99.90;;;16.29;82.53;97244.53;5040231;28;20388;-65
2021/06/22 09:44:23;;;;;;;5.32;3.42;;;17.10;99.90;;;16.14;82.29;97252.66;5055702;28;20041;-65
2021/06/22 09:47:11;;;;;;;4.55;3.15;;;17.10;99.90;;;16.24;81.86;97256.31;5049120;28;20076;-65
2021/06/22 09:50:00;;;;;;;4.00;2.10;;;17.20;99.90;;;16.44;82.04;97257.50;5034575;28;20520;-65
2021/06/22 09:52:47;;;;;;;6.07;3.00;;;17.40;99.90;;;16.10;84.43;97257.25;5034190;28;20132;-66
2021/06/22 09:55:35;;;;;;;5.90;2.85;;;17.60;99.90;;;16.27;83.38;97251.66;5050245;28;20073;-66
2021/06/22 09:58:43;;;;;;;5.85;2.78;;;17.60;99.90;;;16.41;81.89;97248.06;5051747;28;20052;-66
2021/06/22 10:01:34;;;;;;;3.90;2.70;;;17.60;99.90;;;16.47;82.11;97252.88;5033244;28;20422;-65
2021/06/22 10:04:27;;;;;;;4.63;2.45;;;17.50;99.90;;;16.41;81.66;97265.56;5036470;28;20042;-65
2021/06/22 10:07:17;;;;;;;3.72;2.40;;;17.40;99.90;;;16.54;80.95;97271.63;5046875;28;20045;-65
2021/06/22 10:10:06;;;;;;;5.95;4.18;;;17.30;99.90;;;16.01;82.58;97274.47;5052340;28;20033;-66
2021/06/22 10:12:54;;;;;;;5.78;3.35;;;17.10;99.90;;;15.93;82.63;97275.94;5049771;28;20045;-66
2021/06/22 10:15:41;;;;;;;6.57;3.47;;;17.00;99.90;;;15.95;83.20;97269.63;5048283;28;20505;-65
2021/06/22 10:18:28;;;;;;;5.50;4.10;;;17.00;99.90;;;15.91;84.34;97275.19;5045160;28;20174;-66
2021/06/22 10:21:17;;;;;;;5.22;3.70;;;16.90;99.90;;;16.01;84.29;97278.84;5032938;28;20080;-65
2021/06/22 10:24:05;;;;;;;5.88;3.20;;;16.90;99.90;;;16.05;84.04;97282.91;5032756;28;20106;-66
2021/06/22 10:26:55;;;;;;;6.32;4.22;;;17.10;99.90;;;16.00;83.54;97277.19;5042677;28;20098;-65
2021/06/22 10:29:46;;;;;;;7.32;5.38;;;17.00;99.90;;;15.91;84.37;97285.66;5047734;28;20040;-66
2021/06/22 10:32:34;;;;;;;5.95;4.18;;;16.90;99.90;;;16.01;84.35;97287.56;5033814;28;20052;-65
2021/06/22 10:35:21;;;;;;;6.00;4.50;;;17.00;99.90;;;16.00;84.38;97280.63;5050224;28;20041;-65
2021/06/22 10:38:10;;;;;;;6.97;5.13;;;16.90;99.90;;;15.90;84.96;97290.06;5022143;28;20057;-65
2021/06/22 10:40:58;;;;;;;5.55;4.05;;;16.80;99.90;;;15.97;84.73;97288.69;5019869;28;20044;-65
2021/06/22 10:43:47;;;;;;;5.88;4.63;;;16.90;99.90;;;15.99;84.76;97288.59;5042867;28;20049;-65
2021/06/22 10:46:35;;;;;;;5.80;2.88;;;16.90;99.90;;;16.19;84.26;97285.41;5038850;28;20044;-65
2021/06/22 10:49:23;;;;;;;6.97;3.63;;;17.00;99.90;;;16.27;83.95;97290.97;5041204;28;20048;-65
2021/06/22 10:52:10;;;;;;;5.20;4.10;;;17.10;99.90;;;16.09;84.24;97290.47;5037350;28;20041;-66
2021/06/22 10:54:58;;;;;;;7.20;4.13;;;17.10;99.90;;;16.24;83.88;97291.19;5013780;28;20061;-66
2021/06/22 10:57:57;;;;;;;6.93;4.93;;;17.10;99.90;;;16.07;84.40;97300.19;5042902;28;20076;-66
2021/06/22 11:00:50;;;;;;;7.18;4.65;;;17.00;99.90;;;16.12;84.14;97293.81;5046520;28;20049;-66
2021/06/22 11:03:37;;;;;;;6.65;4.22;;;17.00;99.90;;;16.31;84.09;97295.03;5048066;28;20088;-66
2021/06/22 11:06:26;;;;;;;4.35;3.85;;;17.20;99.90;;;16.65;84.41;97295.28;5057288;28;20358;-66
2021/06/22 11:09:19;;;;;;;8.73;4.68;;;17.50;99.90;;;16.56;82.16;97292.44;5055164;28;20045;-65
2021/06/22 11:12:18;;;;;;;8.20;5.18;;;17.60;99.90;;;16.30;83.96;97295.13;5060778;28;20049;-65
2021/06/22 11:15:08;;;;;;;7.80;4.93;;;17.40;99.90;;;16.12;84.79;97296.44;5039390;28;20067;-66
2021/06/22 11:17:58;;;;;;;7.13;3.65;;;17.30;99.90;;;16.12;85.04;97288.56;5051191;28;20139;-66
2021/06/22 11:21:17;;;;;;;7.30;4.18;;;17.30;99.90;;;16.31;84.12;97287.19;5034280;28;20484;-65
2021/06/22 11:24:16;;;;;;;7.20;3.35;;;17.40;99.90;;;16.39;83.35;97286.63;5048229;28;20121;-65
2021/06/22 11:27:04;;;;;;;6.05;3.60;;;17.30;99.90;;;16.18;84.25;97293.38;5042826;28;20048;-66
2021/06/22 11:29:51;;;;;;;4.00;3.42;;;17.20;99.90;;;16.35;83.59;97287.78;5037086;28;20155;-66
2021/06/22 11:32:37;;;;;;;8.02;4.20;;;17.30;99.90;;;16.41;83.40;97294.38;5047134;28;20095;-66
2021/06/22 11:35:25;;;;;;;4.88;3.25;;;17.40;99.90;;;16.27;83.85;97295.38;5051902;28;20052;-66
2021/06/22 11:38:14;;;;;;;5.65;4.43;;;17.40;99.90;;;16.38;84.02;97295.44;5007476;28;20141;-66
2021/06/22 11:41:16;;;;;;;7.35;3.95;;;17.30;99.90;;;16.53;83.72;97293.50;5008299;28;20049;-67
2021/06/22 11:44:09;;;;;;;6.05;4.47;;;17.50;99.90;;;16.76;84.17;97299.72;5007712;28;20045;-65
2021/06/22 11:46:57;;;;;;;;;;;17.80;99.90;;;16.92;81.90;97299.47;4942956;29;20052;-66